createdAt,value
2019-02-07T00:00:58.297Z,99.84
2019-02-07T00:04:02.266Z,99.82
2019-02-07T00:07:06.243Z,99.80
2019-02-07T00:10:10.764Z,99.77
2019-02-07T00:13:14.570Z,99.75
2019-02-07T00:16:18.493Z,99.76
2019-02-07T00:19:22.305Z,99.76
2019-02-07T00:22:26.175Z,99.72
2019-02-07T00:25:30.076Z,99.71
2019-02-07T00:28:34.044Z,99.69
2019-02-07T00:31:37.934Z,99.70
2019-02-07T00:34:41.835Z,99.67
2019-02-07T00:37:46.003Z,99.66
2019-02-07T00:40:49.881Z,99.66
2019-02-07T00:43:53.718Z,99.68
2019-02-07T00:46:57.578Z,99.64
2019-02-07T00:50:01.387Z,99.64
2019-02-07T00:53:05.337Z,99.61
2019-02-07T00:56:09.256Z,99.57
2019-02-07T00:59:13.084Z,99.59
2019-02-07T01:02:16.994Z,99.57
2019-02-07T01:05:22.139Z,99.55
2019-02-07T01:08:26.113Z,99.56
2019-02-07T01:11:29.926Z,99.55
2019-02-07T01:14:33.902Z,99.55
2019-02-07T01:17:37.881Z,99.54
2019-02-07T01:20:41.845Z,99.54
2019-02-07T01:23:45.781Z,99.54
2019-02-07T01:26:49.714Z,99.54
2019-02-07T01:29:53.662Z,99.55
2019-02-07T01:32:57.619Z,99.51
2019-02-07T01:36:01.447Z,99.50
2019-02-07T01:39:08.405Z,99.50
2019-02-07T01:42:12.243Z,99.49
2019-02-07T01:45:18.639Z,99.48
2019-02-07T01:48:22.620Z,99.46
2019-02-07T01:51:26.611Z,99.47
2019-02-07T01:54:30.486Z,99.45
2019-02-07T01:57:34.362Z,99.47
2019-02-07T02:00:38.266Z,99.44
2019-02-07T02:03:42.133Z,99.46
2019-02-07T02:06:45.939Z,99.45
2019-02-07T02:09:49.961Z,99.45
2019-02-07T02:12:54.167Z,99.45
2019-02-07T02:15:58.118Z,99.44
2019-02-07T02:19:02.043Z,99.45
2019-02-07T02:22:06.388Z,99.40
2019-02-07T02:25:10.824Z,99.42
2019-02-07T02:28:14.689Z,99.38
2019-02-07T02:31:18.942Z,99.31
2019-02-07T02:34:22.740Z,99.30
2019-02-07T02:37:26.741Z,99.32
2019-02-07T02:40:30.994Z,99.24
2019-02-07T02:43:34.841Z,99.23
2019-02-07T02:46:38.811Z,99.21
2019-02-07T02:49:43.082Z,99.22
2019-02-07T02:52:47.099Z,99.25
2019-02-07T02:55:52.067Z,99.17
2019-02-07T02:58:56.138Z,99.17
2019-02-07T03:02:37.155Z,99.21
2019-02-07T03:05:55.040Z,99.24
2019-02-07T03:09:17.465Z,99.22
2019-02-07T03:12:35.526Z,99.23
2019-02-07T03:15:58.427Z,99.23
2019-02-07T03:19:19.963Z,99.20
2019-02-07T03:22:42.732Z,99.17
2019-02-07T03:26:05.633Z,99.15
2019-02-07T03:29:34.717Z,99.18
2019-02-07T03:32:55.179Z,99.17
2019-02-07T03:36:30.135Z,99.18
2019-02-07T03:39:59.375Z,99.12
2019-02-07T03:43:12.954Z,99.16
2019-02-07T03:46:41.829Z,99.19
2019-02-07T03:50:11.479Z,99.21
2019-02-07T03:53:35.868Z,99.22
2019-02-07T03:56:57.751Z,99.20
2019-02-07T04:00:20.671Z,99.19
2019-02-07T04:03:46.699Z,99.22
2019-02-07T04:07:15.188Z,99.25
2019-02-07T04:10:56.488Z,99.20
2019-02-07T04:14:13.125Z,99.20
2019-02-07T04:17:38.861Z,99.25
2019-02-07T04:21:00.662Z,99.25
2019-02-07T04:24:13.427Z,99.24
2019-02-07T04:27:45.834Z,99.23
2019-02-07T04:31:08.180Z,99.25
2019-02-07T04:34:36.431Z,99.18
2019-02-07T04:38:08.701Z,99.19
2019-02-07T04:41:26.546Z,99.20
2019-02-07T04:44:49.637Z,99.22
2019-02-07T04:48:06.854Z,99.27
2019-02-07T04:51:27.623Z,99.24
2019-02-07T04:54:56.226Z,99.26
2019-02-07T04:58:18.297Z,99.26
2019-02-07T05:01:34.806Z,99.23
2019-02-07T05:05:03.680Z,99.23
2019-02-07T05:08:26.604Z,99.18
2019-02-07T05:11:49.492Z,99.19
2019-02-07T05:15:30.703Z,99.15
2019-02-07T05:18:46.372Z,99.08
2019-02-07T05:22:08.014Z,99.03
2019-02-07T05:25:32.498Z,98.98
2019-02-07T05:29:07.920Z,98.95
2019-02-07T05:32:20.569Z,98.94
2019-02-07T05:35:42.446Z,98.95
2019-02-07T05:39:20.647Z,98.94
2019-02-07T05:42:43.505Z,98.86
2019-02-07T05:46:07.652Z,98.71
2019-02-07T05:49:42.364Z,98.78
2019-02-07T05:53:17.404Z,98.88
2019-02-07T05:56:29.544Z,98.81
2019-02-07T06:00:04.482Z,98.82
2019-02-07T06:03:30.269Z,98.91
2019-02-07T06:06:48.399Z,98.86
2019-02-07T06:10:10.875Z,98.72
2019-02-07T06:13:33.743Z,98.67
2019-02-07T06:17:02.649Z,98.65
2019-02-07T06:20:12.558Z,98.69
2019-02-07T06:23:30.734Z,98.70
2019-02-07T06:26:54.867Z,98.66
2019-02-07T06:30:12.635Z,98.55
2019-02-07T06:33:26.346Z,98.59
2019-02-07T06:36:48.335Z,98.58
2019-02-07T06:40:04.938Z,98.53
2019-02-07T06:43:20.723Z,98.60
2019-02-07T06:46:42.455Z,98.58
2019-02-07T06:49:58.699Z,98.48
2019-02-07T06:53:27.333Z,98.45
2019-02-07T06:57:08.828Z,98.47
2019-02-07T07:00:38.517Z,98.52
2019-02-07T07:04:16.631Z,98.51
2019-02-07T07:07:30.980Z,98.52
2019-02-07T07:11:00.348Z,98.44
2019-02-07T07:14:12.884Z,98.52
2019-02-07T07:17:27.866Z,98.55
2019-02-07T07:20:53.713Z,98.55
2019-02-07T07:24:15.189Z,98.53
2019-02-07T07:27:41.186Z,98.55
2019-02-07T07:31:13.617Z,98.56
2019-02-07T07:34:39.764Z,98.47
2019-02-07T07:37:55.252Z,98.38
2019-02-07T07:41:17.191Z,98.47
2019-02-07T07:44:38.723Z,98.50
2019-02-07T07:48:00.098Z,98.42
2019-02-07T07:51:28.969Z,98.47
2019-02-07T07:54:50.686Z,98.49
2019-02-07T07:58:13.563Z,98.52
2019-02-07T08:01:40.553Z,98.49
2019-02-07T08:04:57.683Z,98.57
2019-02-07T08:08:19.441Z,98.60
2019-02-07T08:11:57.664Z,98.62
2019-02-07T08:15:08.487Z,98.53
2019-02-07T08:18:37.179Z,98.50
2019-02-07T08:21:55.211Z,98.53
2019-02-07T08:25:17.202Z,98.52
2019-02-07T08:28:42.799Z,98.50
2019-02-07T08:32:11.928Z,98.58
2019-02-07T08:35:33.658Z,98.69
2019-02-07T08:38:59.736Z,98.62
2019-02-07T08:42:32.841Z,98.58
2019-02-07T08:46:05.024Z,98.63
2019-02-07T08:49:34.729Z,98.66
2019-02-07T08:53:09.589Z,98.64
2019-02-07T08:56:31.117Z,98.60
2019-02-07T08:59:52.774Z,98.62
2019-02-07T09:03:14.395Z,98.60
2019-02-07T09:06:40.146Z,98.57
2019-02-07T09:10:08.928Z,98.55
2019-02-07T09:13:22.399Z,98.43
2019-02-07T09:16:45.943Z,98.50
2019-02-07T09:20:09.407Z,98.31
2019-02-07T09:23:38.068Z,98.36
2019-02-07T09:26:59.786Z,98.49
2019-02-07T09:30:23.369Z,98.47
2019-02-07T09:33:39.594Z,98.33
2019-02-07T09:37:02.431Z,98.43
2019-02-07T09:40:29.612Z,98.40
2019-02-07T09:43:49.612Z,98.42
2019-02-07T09:47:11.410Z,98.36
2019-02-07T09:50:27.219Z,98.49
2019-02-07T09:53:39.436Z,98.47
2019-02-07T09:57:04.460Z,98.50
2019-02-07T10:00:32.648Z,98.58
2019-02-07T10:04:00.688Z,98.52
2019-02-07T10:07:15.151Z,98.54
2019-02-07T10:10:30.451Z,98.45
2019-02-07T10:13:51.951Z,98.56
2019-02-07T10:17:13.946Z,98.55
2019-02-07T10:20:40.840Z,98.61
2019-02-07T10:24:03.907Z,98.40
2019-02-07T10:27:35.889Z,98.42
2019-02-07T10:30:59.839Z,98.45
2019-02-07T10:34:21.779Z,98.45
2019-02-07T10:37:51.192Z,98.38
2019-02-07T10:41:06.053Z,98.39
2019-02-07T10:44:21.232Z,98.35
2019-02-07T10:47:37.631Z,98.37
2019-02-07T10:50:59.148Z,98.29
2019-02-07T10:54:25.097Z,98.46
2019-02-07T10:57:48.267Z,98.35
2019-02-07T11:01:14.745Z,98.46
2019-02-07T11:04:41.115Z,98.50
2019-02-07T11:07:58.446Z,98.57
2019-02-07T11:11:20.208Z,98.41
2019-02-07T11:14:46.229Z,98.41
2019-02-07T11:18:01.482Z,98.38
2019-02-07T11:21:18.878Z,98.38
2019-02-07T11:24:40.120Z,98.41
2019-02-07T11:28:10.719Z,98.36
2019-02-07T11:31:22.250Z,98.54
2019-02-07T11:34:47.167Z,98.54
2019-02-07T11:37:59.450Z,98.39
2019-02-07T11:41:35.972Z,98.34
2019-02-07T11:45:07.780Z,98.40
2019-02-07T11:48:20.238Z,98.33
2019-02-07T11:51:47.353Z,98.11
2019-02-07T11:55:13.225Z,97.65
2019-02-07T11:58:30.309Z,97.32
2019-02-07T12:01:51.898Z,97.02
2019-02-07T12:05:13.638Z,96.79
2019-02-07T12:08:28.728Z,96.38
2019-02-07T12:11:48.716Z,96.34
2019-02-07T12:15:01.642Z,95.20
2019-02-07T12:18:20.898Z,93.87
2019-02-07T12:21:42.500Z,92.68
2019-02-07T12:25:04.278Z,91.80
2019-02-07T12:28:27.159Z,90.20
2019-02-07T12:31:40.849Z,89.44
2019-02-07T12:35:02.530Z,88.08
2019-02-07T12:38:30.056Z,85.60
2019-02-07T12:41:47.776Z,85.40
2019-02-07T12:45:05.115Z,84.25
2019-02-07T12:48:21.036Z,82.28
2019-02-07T12:51:36.166Z,81.42
2019-02-07T12:55:01.909Z,81.39
2019-02-07T12:58:23.643Z,82.25
2019-02-07T13:01:46.607Z,80.21
2019-02-07T13:05:08.094Z,80.63
2019-02-07T13:08:37.188Z,81.29
2019-02-07T13:11:51.727Z,82.98
2019-02-07T13:15:03.299Z,82.31
2019-02-07T13:18:35.119Z,81.98
2019-02-07T13:22:04.159Z,81.92
2019-02-07T13:25:30.868Z,80.59
2019-02-07T13:28:53.866Z,79.67
2019-02-07T13:32:15.676Z,79.21
2019-02-07T13:35:44.455Z,79.95
2019-02-07T13:38:56.559Z,78.70
2019-02-07T13:42:14.615Z,78.80
2019-02-07T13:45:39.286Z,77.71
2019-02-07T13:49:05.146Z,77.90
2019-02-07T13:52:28.135Z,76.91
2019-02-07T13:56:00.392Z,77.67
2019-02-07T13:59:38.912Z,78.34
2019-02-07T14:02:58.049Z,78.32
2019-02-07T14:06:22.215Z,78.25
2019-02-07T14:09:57.162Z,78.70
2019-02-07T14:13:18.941Z,77.99
2019-02-07T14:16:33.899Z,78.85
2019-02-07T14:20:04.061Z,78.64
2019-02-07T14:23:30.367Z,79.08
2019-02-07T14:26:52.060Z,79.06
2019-02-07T14:30:21.114Z,78.52
2019-02-07T14:33:42.856Z,78.72
2019-02-07T14:37:11.747Z,78.73
2019-02-07T14:40:32.675Z,78.87
2019-02-07T14:44:01.369Z,78.96
2019-02-07T14:47:05.376Z,78.57
2019-02-07T14:50:14.871Z,78.68
2019-02-07T14:53:15.373Z,78.31
2019-02-07T14:56:19.273Z,78.38
2019-02-07T14:59:23.484Z,78.29
2019-02-07T15:02:27.304Z,77.13
2019-02-07T15:05:31.568Z,75.99
2019-02-07T15:08:35.847Z,76.82
2019-02-07T15:11:39.715Z,76.72
2019-02-07T15:14:43.593Z,77.45
2019-02-07T15:17:47.983Z,77.03
2019-02-07T15:20:51.867Z,76.92
2019-02-07T15:23:55.708Z,76.85
2019-02-07T15:26:59.874Z,76.83
2019-02-07T15:30:05.296Z,76.94
2019-02-07T15:33:09.167Z,76.21
2019-02-07T15:36:13.508Z,76.92
2019-02-07T15:39:19.133Z,77.18
2019-02-07T15:42:23.118Z,76.81
2019-02-07T15:45:27.943Z,76.93
2019-02-07T15:48:31.963Z,76.74
2019-02-07T15:51:35.803Z,76.92
2019-02-07T15:54:40.065Z,76.71
2019-02-07T15:57:44.052Z,77.41
2019-02-07T16:00:57.579Z,77.21
2019-02-07T16:04:14.020Z,76.86
2019-02-07T16:07:18.266Z,77.35
2019-02-07T16:10:22.261Z,77.17
2019-02-07T16:13:26.207Z,77.51
2019-02-07T16:16:30.196Z,77.47
2019-02-07T16:19:35.022Z,77.05
2019-02-07T16:22:38.853Z,76.65
2019-02-07T16:25:42.668Z,76.61
2019-02-07T16:28:46.619Z,76.79
2019-02-07T16:31:50.502Z,76.82
2019-02-07T16:34:54.569Z,77.40
2019-02-07T16:37:58.508Z,77.84
2019-02-07T16:41:02.482Z,77.78
2019-02-07T16:44:06.474Z,79.08
2019-02-07T16:47:10.328Z,79.06
2019-02-07T16:50:16.130Z,77.96
2019-02-07T16:53:20.024Z,78.88
2019-02-07T16:56:23.932Z,78.87
2019-02-07T16:59:27.835Z,79.70
2019-02-07T17:02:31.647Z,79.24
2019-02-07T17:05:37.784Z,79.40
2019-02-07T17:08:41.236Z,80.32
2019-02-07T17:11:45.221Z,81.84
2019-02-07T17:14:49.022Z,81.68
2019-02-07T17:17:52.927Z,81.64
2019-02-07T17:20:56.756Z,81.76
2019-02-07T17:24:00.566Z,80.49
2019-02-07T17:27:04.488Z,80.00
2019-02-07T17:30:13.105Z,79.41
2019-02-07T17:33:17.014Z,78.39
2019-02-07T17:36:20.829Z,78.40
2019-02-07T17:39:24.699Z,78.40
2019-02-07T17:42:28.697Z,80.13
2019-02-07T17:45:32.658Z,81.66
2019-02-07T17:48:36.570Z,82.80
2019-02-07T17:51:40.549Z,84.44
2019-02-07T17:54:44.447Z,86.73
2019-02-07T17:57:48.460Z,87.55
2019-02-07T18:01:01.095Z,87.36
2019-02-07T18:04:05.293Z,87.64
2019-02-07T18:07:09.591Z,87.90
2019-02-07T18:10:13.885Z,87.47
2019-02-07T18:13:17.803Z,86.44
2019-02-07T18:16:21.673Z,85.59
2019-02-07T18:19:25.871Z,84.54
2019-02-07T18:22:29.758Z,85.61
2019-02-07T18:25:33.741Z,86.00
2019-02-07T18:28:38.065Z,85.81
2019-02-07T18:31:42.064Z,84.79
2019-02-07T18:34:45.986Z,85.50
2019-02-07T18:37:51.525Z,84.52
2019-02-07T18:40:55.392Z,84.75
2019-02-07T18:43:59.249Z,85.32
2019-02-07T18:47:03.467Z,85.90
2019-02-07T18:50:10.472Z,85.06
2019-02-07T18:53:14.446Z,86.38
2019-02-07T18:56:18.817Z,85.52
2019-02-07T18:59:22.764Z,86.55
2019-02-07T19:02:26.693Z,87.49
2019-02-07T19:05:30.989Z,87.88
2019-02-07T19:08:34.907Z,88.32
2019-02-07T19:11:38.829Z,88.63
2019-02-07T19:14:43.219Z,88.48
2019-02-07T19:17:47.106Z,88.79
2019-02-07T19:20:50.928Z,88.90
2019-02-07T19:23:55.178Z,88.57
2019-02-07T19:26:59.076Z,89.05
2019-02-07T19:30:03.070Z,90.10
2019-02-07T19:33:07.362Z,89.21
2019-02-07T19:36:11.269Z,89.23
2019-02-07T19:39:15.241Z,89.44
2019-02-07T19:42:19.141Z,89.47
2019-02-07T19:45:23.208Z,89.57
2019-02-07T19:48:27.035Z,90.40
2019-02-07T19:51:31.007Z,90.01
2019-02-07T19:54:34.865Z,90.06
2019-02-07T19:57:38.713Z,90.73
2019-02-07T20:00:42.691Z,90.15
2019-02-07T20:03:46.598Z,90.36
2019-02-07T20:06:50.420Z,90.43
2019-02-07T20:09:54.264Z,90.62
2019-02-07T20:12:58.292Z,90.79
2019-02-07T20:16:02.211Z,91.09
2019-02-07T20:19:06.193Z,91.63
2019-02-07T20:22:19.874Z,91.63
2019-02-07T20:25:15.991Z,91.45
2019-02-07T20:28:19.964Z,91.36
2019-02-07T20:31:23.785Z,91.38
2019-02-07T20:34:27.657Z,90.80
2019-02-07T20:37:31.471Z,90.68
2019-02-07T20:40:35.558Z,90.44
2019-02-07T20:43:39.717Z,90.54
2019-02-07T20:46:43.614Z,90.64
2019-02-07T20:49:47.435Z,90.39
2019-02-07T20:52:52.358Z,90.39
2019-02-07T20:55:56.329Z,90.36
2019-02-07T20:59:00.174Z,90.24
2019-02-07T21:02:04.643Z,90.69
2019-02-07T21:05:10.047Z,90.90
2019-02-07T21:08:14.545Z,90.52
2019-02-07T21:11:18.468Z,90.78
2019-02-07T21:14:22.291Z,90.93
2019-02-07T21:17:26.217Z,90.56
2019-02-07T21:20:30.417Z,90.84
2019-02-07T21:23:34.261Z,90.66
2019-02-07T21:26:38.114Z,90.58
2019-02-07T21:29:42.096Z,90.45
2019-02-07T21:32:45.975Z,90.64
2019-02-07T21:35:49.907Z,90.17
2019-02-07T21:38:53.716Z,90.48
2019-02-07T21:41:57.542Z,90.69
2019-02-07T21:45:01.520Z,90.19
2019-02-07T21:48:08.567Z,90.40
2019-02-07T21:51:12.458Z,90.40
2019-02-07T21:54:16.655Z,90.17
2019-02-07T21:57:20.530Z,90.35
2019-02-07T22:00:30.457Z,90.44
2019-02-07T22:03:34.433Z,90.09
2019-02-07T22:06:38.339Z,89.36
2019-02-07T22:09:42.267Z,89.32
2019-02-07T22:12:46.501Z,89.61
2019-02-07T22:15:50.332Z,89.61
2019-02-07T22:18:54.175Z,90.43
2019-02-07T22:21:58.004Z,91.06
2019-02-07T22:25:01.962Z,91.50
2019-02-07T22:28:06.732Z,91.79
2019-02-07T22:31:10.575Z,92.00
2019-02-07T22:34:14.456Z,91.70
2019-02-07T22:37:18.458Z,91.77
2019-02-07T22:40:23.051Z,91.55
2019-02-07T22:43:26.878Z,91.38
2019-02-07T22:46:30.697Z,90.89
2019-02-07T22:49:34.558Z,90.79
2019-02-07T22:52:38.543Z,90.15
2019-02-07T22:55:42.357Z,89.83
2019-02-07T22:58:46.134Z,90.15
2019-02-07T23:01:55.094Z,89.64
2019-02-07T23:04:58.988Z,89.90
2019-02-07T23:08:02.917Z,89.36
2019-02-07T23:11:08.898Z,89.18
2019-02-07T23:14:13.378Z,89.28
2019-02-07T23:17:17.281Z,89.41
2019-02-07T23:20:21.624Z,89.10
2019-02-07T23:23:25.608Z,89.73
2019-02-07T23:26:29.516Z,89.42
2019-02-07T23:29:33.355Z,89.78
2019-02-07T23:32:37.305Z,89.94
2019-02-07T23:35:41.147Z,89.46
2019-02-07T23:38:45.005Z,89.53
2019-02-07T23:41:48.850Z,89.51
2019-02-07T23:44:52.685Z,89.98
2019-02-07T23:47:56.714Z,89.72
2019-02-07T23:51:00.690Z,89.42
2019-02-07T23:54:05.410Z,89.04
2019-02-07T23:57:09.406Z,89.05
